createdAt,value
2022-11-14T00:01:00.580Z,80.03
2022-11-14T00:03:27.019Z,79.43
2022-11-14T00:05:53.330Z,78.98
2022-11-14T00:08:19.681Z,78.78
2022-11-14T00:10:46.026Z,79.15
2022-11-14T00:13:12.364Z,78.66
2022-11-14T00:15:38.677Z,78.36
2022-11-14T00:18:05.034Z,78.58
2022-11-14T00:20:31.348Z,78.69
2022-11-14T00:22:57.707Z,78.88
2022-11-14T00:25:24.041Z,79.57
2022-11-14T00:27:50.356Z,79.81
2022-11-14T00:30:16.711Z,80.22
2022-11-14T00:32:43.025Z,80.73
2022-11-14T00:35:09.379Z,80.86
2022-11-14T00:37:35.728Z,80.76
2022-11-14T00:40:02.037Z,80.87
2022-11-14T00:42:28.388Z,81.05
2022-11-14T00:44:54.720Z,81.23
2022-11-14T00:47:21.073Z,81.14
2022-11-14T00:49:47.383Z,81.38
2022-11-14T00:52:13.710Z,81.33
2022-11-14T00:54:40.048Z,81.55
2022-11-14T00:57:06.364Z,81.50
2022-11-14T00:59:32.685Z,81.57
2022-11-14T01:01:59.023Z,81.58
2022-11-14T01:04:25.520Z,81.69
2022-11-14T01:06:51.838Z,81.73
2022-11-14T01:09:18.246Z,81.93
2022-11-14T01:11:44.503Z,82.14
2022-11-14T01:14:10.820Z,82.17
2022-11-14T01:16:37.220Z,81.99
2022-11-14T01:19:04.234Z,81.86
2022-11-14T01:21:30.547Z,81.87
2022-11-14T01:23:56.864Z,81.70
2022-11-14T01:26:23.226Z,81.70
2022-11-14T01:28:49.555Z,81.59
2022-11-14T01:31:15.951Z,81.60
2022-11-14T01:33:42.403Z,81.73
2022-11-14T01:36:08.687Z,81.94
2022-11-14T01:38:35.023Z,82.19
2022-11-14T01:41:01.336Z,82.47
2022-11-14T01:43:27.680Z,82.75
2022-11-14T01:45:54.019Z,83.00
2022-11-14T01:48:20.350Z,83.36
2022-11-14T01:50:46.676Z,83.62
2022-11-14T01:53:13.006Z,83.86
2022-11-14T01:55:39.321Z,84.03
2022-11-14T01:58:05.637Z,84.17
2022-11-14T02:00:31.964Z,84.29
2022-11-14T02:02:58.292Z,84.35
2022-11-14T02:05:24.608Z,84.45
2022-11-14T02:07:50.982Z,84.63
2022-11-14T02:10:17.319Z,84.81
2022-11-14T02:12:43.654Z,84.88
2022-11-14T02:15:09.978Z,85.18
2022-11-14T02:17:36.304Z,85.29
2022-11-14T02:20:05.359Z,85.40
2022-11-14T02:22:29.004Z,85.63
2022-11-14T02:24:55.339Z,85.87
2022-11-14T02:27:21.673Z,85.91
2022-11-14T02:29:47.998Z,85.96
2022-11-14T02:32:14.333Z,85.98
2022-11-14T02:34:40.666Z,85.99
2022-11-14T02:37:06.982Z,85.96
2022-11-14T02:39:33.317Z,85.84
2022-11-14T02:41:59.666Z,85.84
2022-11-14T02:44:26.009Z,85.98
2022-11-14T02:46:52.333Z,85.95
2022-11-14T02:49:18.706Z,85.99
2022-11-14T02:51:45.080Z,85.98
2022-11-14T02:54:11.488Z,85.96
2022-11-14T02:56:37.812Z,85.85
2022-11-14T02:59:04.169Z,85.85
2022-11-14T03:01:30.550Z,85.83
2022-11-14T03:03:56.837Z,85.74
2022-11-14T03:06:23.181Z,85.58
2022-11-14T03:08:49.495Z,85.39
2022-11-14T03:11:15.832Z,85.16
2022-11-14T03:13:42.175Z,84.94
2022-11-14T03:16:08.491Z,84.65
2022-11-14T03:18:34.851Z,84.46
2022-11-14T03:21:01.196Z,84.17
2022-11-14T03:23:27.528Z,83.74
2022-11-14T03:25:53.873Z,83.33
2022-11-14T03:28:20.191Z,83.07
2022-11-14T03:30:46.539Z,82.97
2022-11-14T03:33:12.908Z,82.77
2022-11-14T03:35:39.254Z,82.74
2022-11-14T03:38:05.570Z,82.67
2022-11-14T03:40:31.894Z,82.50
2022-11-14T03:42:58.245Z,82.36
2022-11-14T03:45:24.607Z,82.32
2022-11-14T03:47:50.918Z,82.24
2022-11-14T03:50:17.289Z,82.24
2022-11-14T03:52:43.620Z,82.28
2022-11-14T03:55:09.959Z,82.49
2022-11-14T03:57:36.273Z,82.65
2022-11-14T04:00:02.619Z,82.88
2022-11-14T04:02:28.988Z,83.15
2022-11-14T04:04:55.324Z,83.50
2022-11-14T04:07:21.647Z,83.76
2022-11-14T04:09:48.081Z,83.94
2022-11-14T04:12:15.923Z,84.02
2022-11-14T04:14:40.736Z,84.32
2022-11-14T04:17:07.103Z,84.54
2022-11-14T04:19:33.437Z,84.37
2022-11-14T04:21:59.752Z,84.23
2022-11-14T04:24:26.134Z,84.51
2022-11-14T04:26:52.426Z,84.46
2022-11-14T04:29:18.759Z,84.52
2022-11-14T04:31:45.109Z,85.11
2022-11-14T04:34:11.458Z,85.21
2022-11-14T04:36:37.787Z,85.38
2022-11-14T04:39:04.105Z,85.46
2022-11-14T04:41:30.488Z,85.51
2022-11-14T04:43:56.801Z,85.26
2022-11-14T04:46:23.135Z,85.34
2022-11-14T04:48:49.485Z,85.38
2022-11-14T04:51:15.822Z,85.26
2022-11-14T04:53:42.156Z,84.93
2022-11-14T04:56:08.492Z,84.68
2022-11-14T04:58:34.830Z,84.69
2022-11-14T05:01:01.179Z,84.64
2022-11-14T05:03:27.464Z,84.71
2022-11-14T05:05:53.805Z,84.69
2022-11-14T05:08:20.141Z,84.24
2022-11-14T05:10:46.504Z,83.90
2022-11-14T05:13:12.824Z,83.67
2022-11-14T05:15:39.169Z,83.60
2022-11-14T05:18:05.486Z,83.61
2022-11-14T05:20:31.804Z,83.83
2022-11-14T05:22:58.143Z,84.09
2022-11-14T05:25:24.502Z,83.97
2022-11-14T05:27:50.869Z,83.85
2022-11-14T05:30:17.264Z,83.62
2022-11-14T05:32:43.609Z,83.73
2022-11-14T05:35:09.941Z,83.44
2022-11-14T05:37:36.316Z,82.83
2022-11-14T05:40:02.676Z,82.72
2022-11-14T05:42:28.997Z,82.62
2022-11-14T05:44:55.317Z,82.49
2022-11-14T05:47:21.681Z,82.57
2022-11-14T05:49:48.012Z,82.74
2022-11-14T05:52:14.332Z,82.95
2022-11-14T05:54:40.714Z,83.03
2022-11-14T05:57:07.050Z,83.06
2022-11-14T05:59:33.361Z,83.25
2022-11-14T06:01:59.829Z,83.71
2022-11-14T06:04:26.111Z,84.18
2022-11-14T06:06:52.493Z,84.48
2022-11-14T06:09:18.755Z,84.90
2022-11-14T06:11:45.113Z,85.05
2022-11-14T06:14:11.508Z,84.71
2022-11-14T06:16:37.779Z,84.42
2022-11-14T06:19:04.114Z,84.62
2022-11-14T06:21:30.463Z,84.92
2022-11-14T06:23:56.800Z,85.27
2022-11-14T06:26:23.138Z,85.46
2022-11-14T06:28:49.491Z,85.53
2022-11-14T06:31:15.879Z,85.57
2022-11-14T06:33:42.209Z,85.39
2022-11-14T06:36:08.527Z,85.22
2022-11-14T06:38:34.879Z,85.13
2022-11-14T06:41:01.270Z,85.24
2022-11-14T06:43:27.578Z,85.25
2022-11-14T06:45:53.917Z,84.76
2022-11-14T06:48:20.232Z,84.66
2022-11-14T06:50:46.572Z,84.77
2022-11-14T06:53:12.910Z,84.79
2022-11-14T06:55:39.233Z,84.70
2022-11-14T06:58:05.613Z,84.65
2022-11-14T07:00:31.961Z,84.45
2022-11-14T07:02:58.249Z,84.47
2022-11-14T07:05:24.562Z,84.61
2022-11-14T07:07:50.893Z,84.68
2022-11-14T07:10:17.233Z,84.53
2022-11-14T07:12:43.549Z,84.44
2022-11-14T07:15:09.887Z,84.39
2022-11-14T07:17:36.233Z,84.36
2022-11-14T07:20:02.569Z,84.44
2022-11-14T07:22:28.963Z,84.42
2022-11-14T07:24:55.293Z,84.36
2022-11-14T07:27:21.642Z,84.40
2022-11-14T07:29:47.965Z,84.43
2022-11-14T07:32:14.276Z,84.49
2022-11-14T07:34:40.600Z,85.74
2022-11-14T07:37:06.961Z,100.00
2022-11-14T07:39:33.300Z,100.00
2022-11-14T07:41:59.624Z,100.00
2022-11-14T07:44:25.955Z,100.00
2022-11-14T07:46:52.313Z,100.00
2022-11-14T07:49:18.654Z,100.00
2022-11-14T07:51:44.975Z,100.00
2022-11-14T07:54:11.336Z,100.00
2022-11-14T07:56:37.657Z,100.00
2022-11-14T07:59:03.976Z,100.00
2022-11-14T08:01:30.393Z,100.00
2022-11-14T08:03:56.664Z,100.00
2022-11-14T08:06:22.988Z,100.00
2022-11-14T08:08:49.321Z,100.00
2022-11-14T08:11:31.595Z,100.00
2022-11-14T08:13:42.005Z,100.00
2022-11-14T08:16:12.833Z,100.00
2022-11-14T08:18:34.675Z,100.00
2022-11-14T08:21:00.990Z,100.00
2022-11-14T08:23:27.368Z,100.00
2022-11-14T08:25:53.687Z,100.00
2022-11-14T08:28:20.044Z,100.00
2022-11-14T08:30:46.367Z,100.00
2022-11-14T08:33:12.689Z,100.00
2022-11-14T08:35:39.028Z,100.00
2022-11-14T08:38:05.343Z,100.00
2022-11-14T08:40:31.681Z,100.00
2022-11-14T08:42:58.023Z,100.00
2022-11-14T08:45:24.375Z,100.00
2022-11-14T08:47:50.704Z,100.00
2022-11-14T08:50:17.068Z,100.00
2022-11-14T08:52:43.456Z,100.00
2022-11-14T08:55:09.779Z,100.00
2022-11-14T08:57:36.104Z,100.00
2022-11-14T09:00:02.453Z,100.00
2022-11-14T09:02:28.878Z,100.00
2022-11-14T09:04:55.301Z,100.00
2022-11-14T09:07:21.565Z,100.00
2022-11-14T09:09:47.934Z,100.00
2022-11-14T09:12:14.255Z,100.00
2022-11-14T09:14:40.597Z,100.00
2022-11-14T09:17:06.991Z,100.00
2022-11-14T09:19:33.313Z,100.00
2022-11-14T09:21:59.665Z,100.00
2022-11-14T09:24:26.005Z,100.00
2022-11-14T09:26:56.780Z,100.00
2022-11-14T09:29:18.675Z,100.00
2022-11-14T09:31:45.054Z,100.00
2022-11-14T09:34:11.394Z,100.00
2022-11-14T09:36:37.721Z,100.00
2022-11-14T09:39:04.086Z,100.00
2022-11-14T09:41:30.426Z,100.00
2022-11-14T09:43:56.766Z,100.00
2022-11-14T09:46:23.098Z,100.00
2022-11-14T09:48:49.450Z,100.00
2022-11-14T09:51:15.789Z,100.00
2022-11-14T09:53:42.131Z,100.00
2022-11-14T09:56:08.455Z,100.00
2022-11-14T09:58:34.813Z,100.00
2022-11-14T10:01:03.851Z,100.00
2022-11-14T10:03:27.814Z,100.00
2022-11-14T10:05:53.859Z,100.00
2022-11-14T10:08:20.178Z,100.00
2022-11-14T10:10:46.509Z,100.00
2022-11-14T10:13:12.845Z,100.00
2022-11-14T10:15:39.178Z,100.00
2022-11-14T10:18:05.502Z,100.00
2022-11-14T10:20:31.858Z,100.00
2022-11-14T10:23:01.344Z,100.00
2022-11-14T10:25:24.507Z,100.00
2022-11-14T10:27:55.907Z,100.00
2022-11-14T10:30:17.233Z,100.00
2022-11-14T10:32:43.541Z,99.51
2022-11-14T10:35:09.900Z,98.39
2022-11-14T10:37:36.256Z,97.39
2022-11-14T10:40:02.600Z,95.75
2022-11-14T10:42:28.947Z,94.50
2022-11-14T10:44:55.287Z,92.73
2022-11-14T10:47:21.649Z,91.07
2022-11-14T10:49:48.013Z,89.43
2022-11-14T10:52:14.333Z,88.01
2022-11-14T10:54:40.712Z,86.60
2022-11-14T10:57:07.103Z,85.12
2022-11-14T10:59:33.464Z,83.96
2022-11-14T11:01:59.830Z,82.97
2022-11-14T11:04:26.345Z,82.09
2022-11-14T11:09:40.740Z,74.39
2022-11-14T11:12:03.066Z,61.53
2022-11-14T11:14:29.348Z,58.13
2022-11-14T11:16:55.754Z,58.00
2022-11-14T11:19:22.103Z,57.53
2022-11-14T11:21:48.548Z,56.59
2022-11-14T11:24:14.827Z,55.77
2022-11-14T11:26:41.205Z,55.35
2022-11-14T11:29:07.522Z,55.75
2022-11-14T11:31:33.843Z,54.80
2022-11-14T11:34:00.173Z,55.16
2022-11-14T11:36:26.495Z,54.85
2022-11-14T11:38:52.858Z,54.80
2022-11-14T11:41:27.370Z,55.03
2022-11-14T11:43:45.569Z,54.38
2022-11-14T11:46:11.880Z,54.26
2022-11-14T11:48:38.271Z,53.59
2022-11-14T11:51:04.624Z,53.42
2022-11-14T11:53:31.117Z,53.50
2022-11-14T11:55:57.268Z,53.33
2022-11-14T11:58:23.644Z,53.30
2022-11-14T12:00:49.954Z,52.89
2022-11-14T12:03:20.349Z,52.83
2022-11-14T12:05:42.712Z,53.52
2022-11-14T12:08:09.044Z,53.23
2022-11-14T12:10:35.364Z,52.88
2022-11-14T12:13:01.703Z,52.14
2022-11-14T12:15:28.057Z,51.85
2022-11-14T12:17:54.415Z,51.80
2022-11-14T12:20:20.736Z,52.25
2022-11-14T12:22:47.116Z,52.13
2022-11-14T12:25:13.441Z,51.37
2022-11-14T12:27:39.858Z,51.93
2022-11-14T12:30:06.153Z,52.22
2022-11-14T12:32:32.515Z,52.26
2022-11-14T12:34:58.895Z,52.52
2022-11-14T12:37:25.198Z,52.70
2022-11-14T12:39:51.570Z,52.39
2022-11-14T12:42:17.941Z,51.74
2022-11-14T12:44:44.249Z,51.60
2022-11-14T12:47:10.660Z,51.50
2022-11-14T12:49:36.989Z,52.11
2022-11-14T12:52:03.357Z,52.12
2022-11-14T12:54:29.709Z,51.83
2022-11-14T12:56:56.072Z,51.41
2022-11-14T12:59:22.436Z,51.79
2022-11-14T13:01:48.863Z,51.87
2022-11-14T13:04:15.250Z,52.09
2022-11-14T13:06:41.517Z,51.61
2022-11-14T13:09:07.883Z,51.44
2022-11-14T13:11:34.287Z,51.67
2022-11-14T13:14:00.612Z,52.31
2022-11-14T13:16:26.981Z,52.42
2022-11-14T13:18:53.376Z,52.13
2022-11-14T13:21:19.718Z,51.96
2022-11-14T13:23:46.045Z,52.18
2022-11-14T13:26:12.425Z,52.38
2022-11-14T13:28:38.785Z,52.42
2022-11-14T13:31:05.144Z,52.42
2022-11-14T13:33:31.906Z,52.12
2022-11-14T13:36:03.836Z,52.29
2022-11-14T13:38:24.265Z,52.52
2022-11-14T13:40:50.584Z,52.35
2022-11-14T13:43:16.948Z,52.53
2022-11-14T13:45:43.313Z,52.92
2022-11-14T13:48:09.666Z,53.02
2022-11-14T13:50:36.028Z,53.22
2022-11-14T13:53:02.388Z,53.92
2022-11-14T13:55:28.718Z,53.62
2022-11-14T13:57:55.041Z,53.98
2022-11-14T14:00:21.491Z,54.06
2022-11-14T14:02:47.699Z,54.21
2022-11-14T14:05:14.061Z,54.46
2022-11-14T14:07:40.454Z,54.66
2022-11-14T14:10:06.840Z,54.98
2022-11-14T14:12:33.161Z,55.21
2022-11-14T14:14:59.508Z,55.53
2022-11-14T14:17:25.844Z,55.68
2022-11-14T14:19:52.197Z,56.18
2022-11-14T14:22:18.563Z,56.59
2022-11-14T14:24:45.022Z,56.95
2022-11-14T14:27:11.304Z,57.36
2022-11-14T14:29:37.671Z,57.75
2022-11-14T14:32:03.994Z,58.07
2022-11-14T14:34:30.357Z,58.36
2022-11-14T14:36:56.672Z,58.96
2022-11-14T14:39:23.045Z,59.21
2022-11-14T14:41:49.528Z,59.50
2022-11-14T14:44:15.849Z,59.92
2022-11-14T14:46:42.177Z,60.21
2022-11-14T14:49:08.537Z,60.44
2022-11-14T14:51:34.902Z,60.76
2022-11-14T14:54:01.215Z,61.07
2022-11-14T14:56:27.561Z,61.25
2022-11-14T14:58:53.973Z,61.53
2022-11-14T15:01:20.389Z,61.78
2022-11-14T15:03:46.743Z,62.13
2022-11-14T15:06:13.061Z,62.35
2022-11-14T15:08:39.421Z,62.58
2022-11-14T15:11:05.794Z,62.82
2022-11-14T15:13:32.097Z,63.18
2022-11-14T15:15:58.422Z,63.50
2022-11-14T15:18:24.788Z,63.77
2022-11-14T15:20:51.152Z,64.03
2022-11-14T15:23:17.544Z,64.38
2022-11-14T15:25:43.910Z,64.54
2022-11-14T15:28:13.013Z,64.91
2022-11-14T15:30:36.557Z,65.13
2022-11-14T15:33:02.886Z,65.36
2022-11-14T15:35:29.257Z,65.58
2022-11-14T15:37:55.580Z,65.72
2022-11-14T15:40:21.919Z,65.76
2022-11-14T15:42:48.310Z,66.05
2022-11-14T15:45:14.635Z,66.17
2022-11-14T15:47:41.020Z,66.35
2022-11-14T15:50:07.352Z,66.53
2022-11-14T15:52:33.724Z,66.79
2022-11-14T15:55:02.284Z,67.19
2022-11-14T15:57:28.594Z,67.33
2022-11-14T15:59:54.966Z,67.46
2022-11-14T16:02:21.294Z,67.74
2022-11-14T16:04:48.120Z,67.99
2022-11-14T16:07:14.075Z,68.17
2022-11-14T16:09:40.356Z,68.43
2022-11-14T16:12:06.724Z,68.63
2022-11-14T16:14:33.050Z,68.88
2022-11-14T16:16:59.374Z,69.10
2022-11-14T16:19:25.748Z,69.24
2022-11-14T16:21:52.066Z,69.42
2022-11-14T16:24:18.453Z,69.68
2022-11-14T16:26:44.767Z,69.91
2022-11-14T16:29:11.148Z,70.06
2022-11-14T16:31:37.490Z,70.31
2022-11-14T16:34:03.859Z,72.13
2022-11-14T16:36:30.166Z,71.72
2022-11-14T16:38:56.553Z,71.30
2022-11-14T16:41:22.912Z,71.14
2022-11-14T16:43:49.279Z,71.03
2022-11-14T16:46:15.663Z,70.93
2022-11-14T16:48:42.011Z,70.94
2022-11-14T16:51:33.041Z,71.07
2022-11-14T16:53:34.747Z,71.23
2022-11-14T16:56:01.105Z,71.39
2022-11-14T16:58:27.430Z,71.61
2022-11-14T17:00:53.833Z,71.63
2022-11-14T17:03:20.203Z,71.85
2022-11-14T17:05:46.598Z,72.12
2022-11-14T17:08:13.030Z,72.37
2022-11-14T17:10:39.264Z,72.64
2022-11-14T17:13:05.628Z,72.69
2022-11-14T17:15:31.968Z,72.73
2022-11-14T17:17:58.333Z,72.98
2022-11-14T17:20:24.717Z,73.08
2022-11-14T17:22:51.058Z,72.99
2022-11-14T17:25:17.382Z,73.02
2022-11-14T17:27:43.747Z,73.02
2022-11-14T17:30:10.148Z,72.99
2022-11-14T17:32:36.518Z,73.24
2022-11-14T17:35:02.843Z,73.27
2022-11-14T17:37:29.177Z,73.43
2022-11-14T17:39:55.501Z,73.46
2022-11-14T17:42:21.860Z,73.47
2022-11-14T17:44:48.235Z,73.52
2022-11-14T17:47:14.624Z,73.65
2022-11-14T17:49:40.990Z,73.79
2022-11-14T17:52:07.365Z,73.99
2022-11-14T17:54:33.680Z,74.28
2022-11-14T17:57:00.017Z,74.58
2022-11-14T17:59:26.374Z,74.80
2022-11-14T18:01:52.821Z,75.14
2022-11-14T18:04:19.108Z,75.36
2022-11-14T18:06:45.465Z,75.40
2022-11-14T18:09:14.412Z,75.69
2022-11-14T18:11:38.327Z,75.92
2022-11-14T18:14:04.595Z,75.98
2022-11-14T18:16:50.497Z,76.07
2022-11-14T18:18:57.359Z,76.32
2022-11-14T18:21:23.725Z,76.43
2022-11-14T18:23:50.047Z,77.39
2022-11-14T18:26:16.374Z,77.92
2022-11-14T18:28:42.736Z,77.40
2022-11-14T18:31:09.058Z,77.00
2022-11-14T18:33:35.376Z,76.76
2022-11-14T18:36:01.739Z,76.23
2022-11-14T18:38:28.271Z,75.67
2022-11-14T18:40:57.290Z,75.65
2022-11-14T18:43:20.945Z,75.61
2022-11-14T18:45:47.294Z,75.63
2022-11-14T18:48:13.627Z,75.53
2022-11-14T18:50:39.997Z,75.45
2022-11-14T18:53:06.334Z,75.62
2022-11-14T18:55:32.661Z,75.92
2022-11-14T18:57:59.022Z,76.02
2022-11-14T19:00:25.395Z,76.08
2022-11-14T19:02:51.717Z,77.69
2022-11-14T19:05:18.048Z,77.55
2022-11-14T19:07:44.410Z,77.44
2022-11-14T19:10:10.794Z,77.49
2022-11-14T19:12:37.119Z,77.29
2022-11-14T19:15:03.504Z,77.24
2022-11-14T19:17:29.848Z,77.29
2022-11-14T19:19:56.197Z,77.26
2022-11-14T19:22:22.553Z,77.13
2022-11-14T19:24:48.883Z,76.99
2022-11-14T19:27:15.285Z,77.04
2022-11-14T19:29:41.642Z,77.05
2022-11-14T19:32:07.993Z,76.99
2022-11-14T19:34:34.348Z,76.96
2022-11-14T19:37:01.428Z,76.79
2022-11-14T19:39:27.004Z,76.76
2022-11-14T19:41:53.423Z,76.63
2022-11-14T19:44:19.793Z,76.63
2022-11-14T19:46:48.078Z,76.59
2022-11-14T19:49:12.504Z,76.64
2022-11-14T19:51:38.817Z,76.64
2022-11-14T19:54:05.192Z,76.56
2022-11-14T19:56:31.530Z,76.64
2022-11-14T19:58:57.856Z,76.72
2022-11-14T20:01:24.319Z,76.76
2022-11-14T20:03:50.658Z,76.87
2022-11-14T20:06:17.017Z,76.86
2022-11-14T20:08:43.385Z,77.18
2022-11-14T20:11:09.704Z,77.25
2022-11-14T20:13:36.104Z,77.06
2022-11-14T20:16:02.398Z,77.49
2022-11-14T20:18:28.763Z,77.72
2022-11-14T20:20:55.187Z,77.86
2022-11-14T20:23:21.507Z,77.96
2022-11-14T20:25:47.908Z,78.18
2022-11-14T20:28:14.215Z,78.44
2022-11-14T20:30:40.532Z,78.40
2022-11-14T20:33:06.885Z,78.46
2022-11-14T20:35:33.251Z,78.62
2022-11-14T20:38:04.343Z,78.26
2022-11-14T20:40:25.973Z,78.04
2022-11-14T20:42:52.332Z,78.01
2022-11-14T20:45:19.886Z,77.77
2022-11-14T20:47:45.096Z,77.83
2022-11-14T20:50:11.530Z,77.84
2022-11-14T20:52:37.944Z,77.72
2022-11-14T20:55:08.918Z,77.71
2022-11-14T20:57:30.629Z,77.70
2022-11-14T20:59:57.023Z,77.61
2022-11-14T21:02:23.383Z,77.71
2022-11-14T21:04:49.689Z,77.45
2022-11-14T21:07:16.090Z,77.37
2022-11-14T21:09:42.383Z,77.42
2022-11-14T21:12:08.757Z,77.36
2022-11-14T21:14:35.175Z,77.16
2022-11-14T21:17:01.545Z,77.00
2022-11-14T21:19:27.894Z,76.75
2022-11-14T21:21:54.222Z,76.91
2022-11-14T21:24:20.573Z,76.99
2022-11-14T21:26:46.935Z,76.65
2022-11-14T21:29:13.386Z,76.51
2022-11-14T21:31:39.743Z,76.47
2022-11-14T21:34:06.138Z,76.87
2022-11-14T21:36:47.888Z,77.07
2022-11-14T21:38:58.808Z,77.24
2022-11-14T21:41:25.216Z,76.95
2022-11-14T21:43:51.566Z,76.97
2022-11-14T21:46:17.929Z,77.10
2022-11-14T21:48:44.291Z,77.09
2022-11-14T21:51:10.610Z,77.03
2022-11-14T21:53:36.932Z,77.06
2022-11-14T21:56:03.297Z,77.24
2022-11-14T21:58:29.647Z,77.23
2022-11-14T22:00:55.974Z,76.99
2022-11-14T22:03:22.327Z,76.89
2022-11-14T22:05:48.652Z,77.00
2022-11-14T22:08:15.000Z,77.10
2022-11-14T22:10:41.334Z,77.33
2022-11-14T22:13:07.650Z,77.62
2022-11-14T22:15:33.984Z,77.92
2022-11-14T22:18:00.337Z,78.14
2022-11-14T22:20:26.675Z,78.26
2022-11-14T22:22:52.986Z,78.30
2022-11-14T22:25:19.342Z,78.23
2022-11-14T22:27:45.696Z,78.00
2022-11-14T22:30:12.051Z,77.34
2022-11-14T22:32:38.377Z,77.34
2022-11-14T22:35:04.774Z,77.45
2022-11-14T22:37:31.086Z,77.26
2022-11-14T22:39:57.508Z,77.06
2022-11-14T22:42:23.882Z,76.83
2022-11-14T22:44:50.242Z,76.76
2022-11-14T22:47:16.555Z,76.84
2022-11-14T22:49:42.881Z,76.62
2022-11-14T22:52:09.261Z,76.43
2022-11-14T22:54:35.538Z,76.39
2022-11-14T22:57:01.893Z,76.06
2022-11-14T22:59:28.240Z,76.24
2022-11-14T23:01:54.598Z,76.32
2022-11-14T23:04:20.947Z,75.98
2022-11-14T23:06:47.398Z,75.81
2022-11-14T23:09:13.702Z,76.02
2022-11-14T23:11:40.061Z,76.27
2022-11-14T23:14:06.431Z,76.37
2022-11-14T23:16:32.872Z,76.91
2022-11-14T23:18:59.239Z,77.43
2022-11-14T23:21:25.594Z,77.96
2022-11-14T23:23:51.916Z,78.02
2022-11-14T23:26:18.293Z,78.00
2022-11-14T23:28:44.604Z,77.86
2022-11-14T23:31:10.920Z,77.59
2022-11-14T23:33:37.244Z,77.35
2022-11-14T23:36:03.617Z,77.20
2022-11-14T23:38:29.945Z,76.97
2022-11-14T23:40:56.321Z,76.86
2022-11-14T23:43:22.683Z,76.71
2022-11-14T23:45:49.037Z,77.14
2022-11-14T23:48:15.384Z,77.48
2022-11-14T23:50:41.709Z,77.30
2022-11-14T23:53:08.016Z,76.95
2022-11-14T23:55:34.341Z,76.78
2022-11-14T23:58:00.700Z,76.58
